Main page
METAR-TAF:

METAR-TAF

Airports :

Aktau Airport

Aktau, Kazakhstan

latitude: 43-52-12N, longitude: 051-06E, elevation: 22 m

Current weather observation

The report was made 5 hours and 25 minutes ago, at 09:30 UTC
Wind 12 kt from the West/Southwest, varying between Southwest and West
Temperature 36°C
Humidity 19%
Pressure 1006 hPa
Visibility 10 km or more
no clouds below 1500 m and no cumulonimbus

METAR: UATE 070930Z 25006MPS 220V280 CAVOK 36/09 Q1006 R30/0///70 NOSIG RMK QFE753/1004

Time: 19:55 (14:55 UTC)

Forecast

The report was made 3 hours and 52 minutes ago, at 11:03 UTC
Forecast valid from 07 at 12 UTC to 08 at 12 UTC
Wind 12 kt from the Northwest
Visibility 10 km or more
Scattered clouds at a height of 3300 ft
Becoming
from 07 at 19 UTC to 07 at 21 UTC
Wind 10 kt from the North/Northeast
Becoming
from 08 at 04 UTC to 08 at 06 UTC
Wind 10 kt from the South/Southeast

TAF: UATE 071103Z 0712/0812 32006MPS 9999 SCT033 TX40/0809Z TN25/0801Z BECMG 0719/0721 03005MPS BECMG 0804/0806 15005MPS

Weather observations and forecasts of more than 4000 airports (METAR and TAF reports).

The available stations are represented by yellow and red dots on the map.

Hover mouse over dot to see the name of the station.

Then click to see weather observations and forecasts.

To change the map : click on the green buttons with a black cross to zoom in, on the green button with a dash to zoom out, or on the green arrows for adjacent maps.


METAR-TAF: